sensor_id;sensor_type;location;lat;lon;timestamp;pressure;altitude;pressure_sealevel;temperature;humidity
37206;BME280;23099;42.636;23.198;2023-06-19T00:00:53;92155.50;;;15.85;100.00
37206;BME280;23099;42.636;23.198;2023-06-19T00:03:20;92167.81;;;15.90;100.00
37206;BME280;23099;42.636;23.198;2023-06-19T00:05:46;92168.19;;;15.88;100.00
37206;BME280;23099;42.636;23.198;2023-06-19T00:08:13;92163.97;;;15.87;100.00
37206;BME280;23099;42.636;23.198;2023-06-19T00:10:40;92158.56;;;15.91;100.00
37206;BME280;23099;42.636;23.198;2023-06-19T00:13:06;92162.06;;;15.84;100.00
37206;BME280;23099;42.636;23.198;2023-06-19T00:15:34;92156.66;;;15.84;100.00
37206;BME280;23099;42.636;23.198;2023-06-19T00:18:01;92155.50;;;15.82;100.00
37206;BME280;23099;42.636;23.198;2023-06-19T00:20:28;92147.81;;;15.84;100.00
37206;BME280;23099;42.636;23.198;2023-06-19T00:22:54;92147.03;;;15.83;100.00
37206;BME280;23099;42.636;23.198;2023-06-19T00:25:21;92146.28;;;15.79;100.00
37206;BME280;23099;42.636;23.198;2023-06-19T00:27:48;92143.97;;;15.78;100.00
37206;BME280;23099;42.636;23.198;2023-06-19T00:30:15;92147.03;;;15.80;100.00
37206;BME280;23099;42.636;23.198;2023-06-19T00:32:43;92142.81;;;15.79;100.00
37206;BME280;23099;42.636;23.198;2023-06-19T00:35:13;92150.91;;;15.79;100.00
37206;BME280;23099;42.636;23.198;2023-06-19T00:37:40;92150.50;;;15.84;100.00
37206;BME280;23099;42.636;23.198;2023-06-19T00:40:14;92154.38;;;15.83;100.00
37206;BME280;23099;42.636;23.198;2023-06-19T00:42:43;92145.88;;;15.81;100.00
37206;BME280;23099;42.636;23.198;2023-06-19T00:45:10;92146.66;;;15.81;100.00
37206;BME280;23099;42.636;23.198;2023-06-19T00:47:37;92148.97;;;15.83;100.00
37206;BME280;23099;42.636;23.198;2023-06-19T00:50:06;92132.41;;;15.74;100.00
37206;BME280;23099;42.636;23.198;2023-06-19T00:52:33;92142.44;;;15.80;100.00
37206;BME280;23099;42.636;23.198;2023-06-19T00:55:01;92133.97;;;15.78;100.00
37206;BME280;23099;42.636;23.198;2023-06-19T00:57:28;92132.84;;;15.72;100.00
37206;BME280;23099;42.636;23.198;2023-06-19T00:59:55;92130.50;;;15.78;100.00
37206;BME280;23099;42.636;23.198;2023-06-19T01:02:23;92126.66;;;15.75;100.00
37206;BME280;23099;42.636;23.198;2023-06-19T01:04:50;92127.06;;;15.70;100.00
37206;BME280;23099;42.636;23.198;2023-06-19T01:07:22;92123.22;;;15.64;100.00
37206;BME280;23099;42.636;23.198;2023-06-19T01:10:00;92122.44;;;15.67;100.00
37206;BME280;23099;42.636;23.198;2023-06-19T01:12:32;92115.13;;;15.64;100.00
37206;BME280;23099;42.636;23.198;2023-06-19T01:15:02;92122.06;;;15.62;100.00
37206;BME280;23099;42.636;23.198;2023-06-19T01:17:30;92118.22;;;15.66;100.00
37206;BME280;23099;42.636;23.198;2023-06-19T01:19:58;92115.13;;;15.64;100.00
37206;BME280;23099;42.636;23.198;2023-06-19T01:22:27;92113.19;;;15.61;100.00
37206;BME280;23099;42.636;23.198;2023-06-19T01:24:54;92109.78;;;15.57;100.00
37206;BME280;23099;42.636;23.198;2023-06-19T01:27:21;92108.59;;;15.54;100.00
37206;BME280;23099;42.636;23.198;2023-06-19T01:29:50;92118.59;;;15.50;100.00
37206;BME280;23099;42.636;23.198;2023-06-19T01:32:20;92107.44;;;15.45;100.00
37206;BME280;23099;42.636;23.198;2023-06-19T01:34:49;92113.63;;;15.38;100.00
37206;BME280;23099;42.636;23.198;2023-06-19T01:37:18;92118.63;;;15.29;100.00
37206;BME280;23099;42.636;23.198;2023-06-19T01:39:47;92117.09;;;15.28;100.00
37206;BME280;23099;42.636;23.198;2023-06-19T01:42:15;92120.56;;;15.25;100.00
37206;BME280;23099;42.636;23.198;2023-06-19T01:44:42;92127.84;;;15.21;100.00
37206;BME280;23099;42.636;23.198;2023-06-19T01:47:10;92121.31;;;15.04;100.00
37206;BME280;23099;42.636;23.198;2023-06-19T01:49:37;92123.25;;;15.00;100.00
37206;BME280;23099;42.636;23.198;2023-06-19T01:52:05;92129.38;;;15.01;100.00
37206;BME280;23099;42.636;23.198;2023-06-19T01:54:32;92126.31;;;14.99;100.00
37206;BME280;23099;42.636;23.198;2023-06-19T01:57:00;92140.91;;;15.01;100.00
37206;BME280;23099;42.636;23.198;2023-06-19T01:59:26;92130.56;;;14.96;100.00
37206;BME280;23099;42.636;23.198;2023-06-19T02:01:53;92136.69;;;14.97;100.00
37206;BME280;23099;42.636;23.198;2023-06-19T02:04:20;92132.09;;;14.97;100.00
37206;BME280;23099;42.636;23.198;2023-06-19T02:06:46;92139.00;;;14.95;100.00
37206;BME280;23099;42.636;23.198;2023-06-19T02:09:13;92134.78;;;14.94;100.00
37206;BME280;23099;42.636;23.198;2023-06-19T02:11:40;92142.84;;;14.90;100.00
37206;BME280;23099;42.636;23.198;2023-06-19T02:14:09;92143.22;;;14.92;100.00
37206;BME280;23099;42.636;23.198;2023-06-19T02:16:36;92143.19;;;14.74;100.00
37206;BME280;23099;42.636;23.198;2023-06-19T02:19:03;92148.56;;;14.74;100.00
37206;BME280;23099;42.636;23.198;2023-06-19T02:21:29;92147.44;;;14.68;100.00
37206;BME280;23099;42.636;23.198;2023-06-19T02:23:56;92144.72;;;14.65;100.00
37206;BME280;23099;42.636;23.198;2023-06-19T02:26:23;92148.56;;;14.67;100.00
37206;BME280;23099;42.636;23.198;2023-06-19T02:28:52;92152.81;;;14.68;100.00
37206;BME280;23099;42.636;23.198;2023-06-19T02:31:21;92151.66;;;14.69;100.00
37206;BME280;23099;42.636;23.198;2023-06-19T02:33:47;92150.88;;;14.72;100.00
37206;BME280;23099;42.636;23.198;2023-06-19T02:36:14;92155.50;;;14.68;100.00
37206;BME280;23099;42.636;23.198;2023-06-19T02:38:45;92153.19;;;14.70;100.00
37206;BME280;23099;42.636;23.198;2023-06-19T02:41:12;92150.50;;;14.74;100.00
37206;BME280;23099;42.636;23.198;2023-06-19T02:43:39;92152.81;;;14.68;100.00
37206;BME280;23099;42.636;23.198;2023-06-19T02:46:06;92158.94;;;14.65;100.00
37206;BME280;23099;42.636;23.198;2023-06-19T02:48:34;92152.00;;;14.61;100.00
37206;BME280;23099;42.636;23.198;2023-06-19T02:51:01;92157.38;;;14.57;100.00
37206;BME280;23099;42.636;23.198;2023-06-19T02:53:27;92155.06;;;14.48;100.00
37206;BME280;23099;42.636;23.198;2023-06-19T02:55:54;92158.88;;;14.44;100.00
37206;BME280;23099;42.636;23.198;2023-06-19T02:58:21;92162.34;;;14.41;100.00
37206;BME280;23099;42.636;23.198;2023-06-19T03:00:48;92158.81;;;14.33;100.00
37206;BME280;23099;42.636;23.198;2023-06-19T03:03:15;92161.88;;;14.25;100.00
37206;BME280;23099;42.636;23.198;2023-06-19T03:05:43;92163.00;;;14.20;100.00
37206;BME280;23099;42.636;23.198;2023-06-19T03:08:09;92163.00;;;14.20;100.00
37206;BME280;23099;42.636;23.198;2023-06-19T03:10:36;92157.22;;;14.14;100.00
37206;BME280;23099;42.636;23.198;2023-06-19T03:13:03;92162.59;;;14.14;100.00
37206;BME280;23099;42.636;23.198;2023-06-19T03:15:29;92167.97;;;14.14;100.00
37206;BME280;23099;42.636;23.198;2023-06-19T03:17:56;92162.97;;;14.09;100.00
37206;BME280;23099;42.636;23.198;2023-06-19T03:20:23;92162.16;;;14.05;100.00
37206;BME280;23099;42.636;23.198;2023-06-19T03:22:51;92160.22;;;13.95;100.00
37206;BME280;23099;42.636;23.198;2023-06-19T03:25:18;92172.09;;;13.91;100.00
37206;BME280;23099;42.636;23.198;2023-06-19T03:27:45;92163.59;;;13.85;100.00
37206;BME280;23099;42.636;23.198;2023-06-19T03:30:12;92170.84;;;13.77;100.00
37206;BME280;23099;42.636;23.198;2023-06-19T03:32:38;92163.56;;;13.78;100.00
37206;BME280;23099;42.636;23.198;2023-06-19T03:35:05;92165.13;;;13.79;100.00
37206;BME280;23099;42.636;23.198;2023-06-19T03:37:32;92162.41;;;13.75;100.00
37206;BME280;23099;42.636;23.198;2023-06-19T03:40:00;92163.19;;;13.79;100.00
37206;BME280;23099;42.636;23.198;2023-06-19T03:42:28;92167.44;;;13.88;100.00
37206;BME280;23099;42.636;23.198;2023-06-19T03:44:55;92160.84;;;13.71;100.00
37206;BME280;23099;42.636;23.198;2023-06-19T03:47:22;92163.41;;;13.50;100.00
37206;BME280;23099;42.636;23.198;2023-06-19T03:49:48;92164.53;;;13.49;100.00
37206;BME280;23099;42.636;23.198;2023-06-19T03:52:15;92166.13;;;13.57;100.00
37206;BME280;23099;42.636;23.198;2023-06-19T03:54:42;92164.63;;;13.63;100.00
37206;BME280;23099;42.636;23.198;2023-06-19T03:57:10;92162.75;;;13.67;100.00
37206;BME280;23099;42.636;23.198;2023-06-19T03:59:36;92160.81;;;13.64;100.00
37206;BME280;23099;42.636;23.198;2023-06-19T04:02:03;92163.50;;;13.64;100.00
37206;BME280;23099;42.636;23.198;2023-06-19T04:04:30;92161.59;;;13.68;100.00
37206;BME280;23099;42.636;23.198;2023-06-19T04:06:57;92169.25;;;13.66;100.00
37206;BME280;23099;42.636;23.198;2023-06-19T04:09:24;92166.56;;;13.66;100.00
37206;BME280;23099;42.636;23.198;2023-06-19T04:11:51;92159.59;;;13.58;100.00
37206;BME280;23099;42.636;23.198;2023-06-19T04:14:19;92156.19;;;13.61;100.00
37206;BME280;23099;42.636;23.198;2023-06-19T04:16:48;92161.97;;;13.66;100.00
37206;BME280;23099;42.636;23.198;2023-06-19T04:19:15;92163.91;;;13.69;100.00
37206;BME280;23099;42.636;23.198;2023-06-19T04:21:41;92163.19;;;13.76;100.00
37206;BME280;23099;42.636;23.198;2023-06-19T04:24:08;92152.03;;;13.74;100.00
37206;BME280;23099;42.636;23.198;2023-06-19T04:26:35;92159.38;;;13.80;100.00
37206;BME280;23099;42.636;23.198;2023-06-19T04:29:02;92150.94;;;13.82;100.00
37206;BME280;23099;42.636;23.198;2023-06-19T04:31:32;92155.94;;;13.84;100.00
37206;BME280;23099;42.636;23.198;2023-06-19T04:33:58;92151.34;;;13.84;100.00
37206;BME280;23099;42.636;23.198;2023-06-19T04:36:25;92145.97;;;13.84;100.00
37206;BME280;23099;42.636;23.198;2023-06-19T04:38:52;92147.88;;;13.87;100.00
37206;BME280;23099;42.636;23.198;2023-06-19T04:41:18;92152.13;;;13.92;100.00
37206;BME280;23099;42.636;23.198;2023-06-19T04:43:45;92149.50;;;13.99;100.00
37206;BME280;23099;42.636;23.198;2023-06-19T04:46:12;92150.63;;;14.01;100.00
37206;BME280;23099;42.636;23.198;2023-06-19T04:48:40;92147.97;;;14.08;100.00
37206;BME280;23099;42.636;23.198;2023-06-19T04:51:06;92153.38;;;14.12;100.00
37206;BME280;23099;42.636;23.198;2023-06-19T04:53:33;92153.75;;;14.10;100.00
37206;BME280;23099;42.636;23.198;2023-06-19T04:56:00;92153.38;;;14.12;100.00
37206;BME280;23099;42.636;23.198;2023-06-19T04:58:26;92147.63;;;14.17;100.00
37206;BME280;23099;42.636;23.198;2023-06-19T05:00:53;92141.50;;;14.24;100.00
37206;BME280;23099;42.636;23.198;2023-06-19T05:03:20;92146.91;;;14.31;100.00
37206;BME280;23099;42.636;23.198;2023-06-19T05:05:48;92143.09;;;14.35;100.00
37206;BME280;23099;42.636;23.198;2023-06-19T05:08:15;92141.59;;;14.41;100.00
37206;BME280;23099;42.636;23.198;2023-06-19T05:10:42;92138.91;;;14.45;100.00
37206;BME280;23099;42.636;23.198;2023-06-19T05:13:08;92141.63;;;14.48;100.00
37206;BME280;23099;42.636;23.198;2023-06-19T05:15:35;92144.72;;;14.54;100.00
37206;BME280;23099;42.636;23.198;2023-06-19T05:18:02;92143.94;;;14.57;100.00
37206;BME280;23099;42.636;23.198;2023-06-19T05:20:29;92145.88;;;14.64;100.00
37206;BME280;23099;42.636;23.198;2023-06-19T05:22:57;92135.91;;;14.71;100.00
37206;BME280;23099;42.636;23.198;2023-06-19T05:25:24;92148.56;;;14.74;100.00
37206;BME280;23099;42.636;23.198;2023-06-19T05:27:50;92157.44;;;14.82;100.00
37206;BME280;23099;42.636;23.198;2023-06-19T05:30:17;92160.91;;;14.90;100.00
37206;BME280;23099;42.636;23.198;2023-06-19T05:32:44;92161.31;;;14.95;100.00
37206;BME280;23099;42.636;23.198;2023-06-19T05:35:11;92172.06;;;15.06;100.00
37206;BME280;23099;42.636;23.198;2023-06-19T05:37:37;92170.56;;;15.12;100.00
37206;BME280;23099;42.636;23.198;2023-06-19T05:40:07;92168.25;;;15.14;100.00
37206;BME280;23099;42.636;23.198;2023-06-19T05:42:35;92165.94;;;15.19;100.00
37206;BME280;23099;42.636;23.198;2023-06-19T05:45:02;92166.69;;;15.20;100.00
37206;BME280;23099;42.636;23.198;2023-06-19T05:47:29;92174.78;;;15.27;100.00
37206;BME280;23099;42.636;23.198;2023-06-19T05:49:56;92172.84;;;15.31;100.00
37206;BME280;23099;42.636;23.198;2023-06-19T05:52:23;92171.72;;;15.39;100.00
37206;BME280;23099;42.636;23.198;2023-06-19T05:54:50;92175.19;;;15.43;100.00
37206;BME280;23099;42.636;23.198;2023-06-19T05:57:18;92184.00;;;15.51;100.00
37206;BME280;23099;42.636;23.198;2023-06-19T05:59:46;92188.63;;;15.54;100.00
37206;BME280;23099;42.636;23.198;2023-06-19T06:02:13;92170.16;;;15.52;100.00
37206;BME280;23099;42.636;23.198;2023-06-19T06:04:40;92190.94;;;15.66;100.00
37206;BME280;23099;42.636;23.198;2023-06-19T06:07:07;92183.66;;;15.70;100.00
37206;BME280;23099;42.636;23.198;2023-06-19T06:09:34;92188.63;;;15.82;100.00
37206;BME280;23099;42.636;23.198;2023-06-19T06:12:01;92185.91;;;15.93;100.00
37206;BME280;23099;42.636;23.198;2023-06-19T06:14:29;92185.50;;;15.98;100.00
37206;BME280;23099;42.636;23.198;2023-06-19T06:16:56;92182.81;;;15.98;100.00
37206;BME280;23099;42.636;23.198;2023-06-19T06:19:23;92194.34;;;16.06;100.00
37206;BME280;23099;42.636;23.198;2023-06-19T06:21:49;92189.72;;;16.10;100.00
37206;BME280;23099;42.636;23.198;2023-06-19T06:24:16;92191.66;;;16.13;100.00
37206;BME280;23099;42.636;23.198;2023-06-19T06:26:43;92193.16;;;16.17;100.00
37206;BME280;23099;42.636;23.198;2023-06-19T06:29:10;92188.53;;;16.21;100.00
37206;BME280;23099;42.636;23.198;2023-06-19T06:31:39;92189.28;;;16.25;100.00
37206;BME280;23099;42.636;23.198;2023-06-19T06:34:06;92204.28;;;16.34;100.00
37206;BME280;23099;42.636;23.198;2023-06-19T06:36:34;92188.09;;;16.37;100.00
37206;BME280;23099;42.636;23.198;2023-06-19T06:39:00;92194.63;;;16.43;100.00
37206;BME280;23099;42.636;23.198;2023-06-19T06:41:27;92194.97;;;16.49;100.00
37206;BME280;23099;42.636;23.198;2023-06-19T06:43:54;92200.31;;;16.59;95.00
37206;BME280;23099;42.636;23.198;2023-06-19T06:46:21;92200.31;;;16.70;97.50
37206;BME280;23099;42.636;23.198;2023-06-19T06:48:49;92204.91;;;16.77;97.97
37206;BME280;23099;42.636;23.198;2023-06-19T06:51:16;92205.25;;;16.86;96.97
37206;BME280;23099;42.636;23.198;2023-06-19T06:53:42;92197.13;;;16.89;97.57
37206;BME280;23099;42.636;23.198;2023-06-19T06:56:09;92200.56;;;16.93;95.91
37206;BME280;23099;42.636;23.198;2023-06-19T06:58:36;92198.59;;;17.01;95.74
37206;BME280;23099;42.636;23.198;2023-06-19T07:01:04;92200.84;;;17.13;96.24
37206;BME280;23099;42.636;23.198;2023-06-19T07:03:30;92195.41;;;17.17;98.05
37206;BME280;23099;42.636;23.198;2023-06-19T07:05:59;92195.38;;;17.24;93.23
37206;BME280;23099;42.636;23.198;2023-06-19T07:08:26;92195.69;;;17.33;95.45
37206;BME280;23099;42.636;23.198;2023-06-19T07:10:53;92191.78;;;17.38;94.45
37206;BME280;23099;42.636;23.198;2023-06-19T07:13:19;92195.19;;;17.49;94.36
37206;BME280;23099;42.636;23.198;2023-06-19T07:15:46;92189.69;;;17.59;94.95
37206;BME280;23099;42.636;23.198;2023-06-19T07:18:13;92192.38;;;17.66;97.86
37206;BME280;23099;42.636;23.198;2023-06-19T07:20:39;92204.63;;;17.75;95.42
37206;BME280;23099;42.636;23.198;2023-06-19T07:23:08;92201.91;;;17.78;92.40
37206;BME280;23099;42.636;23.198;2023-06-19T07:25:36;92205.25;;;17.93;89.36
37206;BME280;23099;42.636;23.198;2023-06-19T07:28:03;92206.38;;;17.99;90.23
37206;BME280;23099;42.636;23.198;2023-06-19T07:30:31;92212.06;;;18.08;89.31
37206;BME280;23099;42.636;23.198;2023-06-19T07:32:57;92219.72;;;18.17;89.89
37206;BME280;23099;42.636;23.198;2023-06-19T07:35:24;92212.28;;;18.24;86.66
37206;BME280;23099;42.636;23.198;2023-06-19T07:37:51;92210.31;;;18.28;84.95
37206;BME280;23099;42.636;23.198;2023-06-19T07:40:19;92211.34;;;18.42;89.36
37206;BME280;23099;42.636;23.198;2023-06-19T07:42:46;92207.78;;;18.48;88.96
37206;BME280;23099;42.636;23.198;2023-06-19T07:45:12;92211.88;;;18.63;87.91
37206;BME280;23099;42.636;23.198;2023-06-19T07:47:39;92213.25;;;18.79;88.86
37206;BME280;23099;42.636;23.198;2023-06-19T07:50:07;92213.53;;;18.88;86.74
37206;BME280;23099;42.636;23.198;2023-06-19T07:52:34;92218.88;;;18.91;84.75
37206;BME280;23099;42.636;23.198;2023-06-19T07:55:00;92220.34;;;18.99;88.60
37206;BME280;23099;42.636;23.198;2023-06-19T07:57:28;92216.81;;;19.02;91.10
37206;BME280;23099;42.636;23.198;2023-06-19T07:59:55;92223.81;;;19.00;78.13
37206;BME280;23099;42.636;23.198;2023-06-19T08:02:22;92221.72;;;19.11;81.05
37206;BME280;23099;42.636;23.198;2023-06-19T08:04:48;92218.94;;;19.18;84.45
37206;BME280;23099;42.636;23.198;2023-06-19T08:07:15;92220.44;;;19.19;82.53
37206;BME280;23099;42.636;23.198;2023-06-19T08:09:42;92224.56;;;19.31;82.35
37206;BME280;23099;42.636;23.198;2023-06-19T08:12:09;92226.78;;;19.36;76.34
37206;BME280;23099;42.636;23.198;2023-06-19T08:14:37;92221.66;;;19.45;75.55
37206;BME280;23099;42.636;23.198;2023-06-19T08:17:04;92223.50;;;19.48;74.27
37206;BME280;23099;42.636;23.198;2023-06-19T08:19:31;92228.69;;;19.39;74.12
37206;BME280;23099;42.636;23.198;2023-06-19T08:21:57;92218.28;;;19.34;76.56
37206;BME280;23099;42.636;23.198;2023-06-19T08:24:24;92218.66;;;19.36;78.88
37206;BME280;23099;42.636;23.198;2023-06-19T08:26:51;92216.59;;;19.47;72.12
37206;BME280;23099;42.636;23.198;2023-06-19T08:29:17;92215.72;;;19.54;79.63
37206;BME280;23099;42.636;23.198;2023-06-19T08:31:46;92217.97;;;19.59;78.56
37206;BME280;23099;42.636;23.198;2023-06-19T08:34:12;92212.16;;;19.60;82.93
37206;BME280;23099;42.636;23.198;2023-06-19T08:36:39;92222.50;;;19.65;75.89
37206;BME280;23099;42.636;23.198;2023-06-19T08:39:06;92228.41;;;19.60;69.12
37206;BME280;23099;42.636;23.198;2023-06-19T08:41:34;92226.81;;;19.63;71.92
37206;BME280;23099;42.636;23.198;2023-06-19T08:44:00;92218.97;;;19.68;75.06
37206;BME280;23099;42.636;23.198;2023-06-19T08:46:28;92218.03;;;19.78;76.47
37206;BME280;23099;42.636;23.198;2023-06-19T08:48:56;92216.75;;;19.87;72.18
37206;BME280;23099;42.636;23.198;2023-06-19T08:51:26;92217.34;;;19.98;79.88
37206;BME280;23099;42.636;23.198;2023-06-19T08:53:55;92215.22;;;20.09;78.15
37206;BME280;23099;42.636;23.198;2023-06-19T08:56:22;92219.00;;;20.15;69.91
37206;BME280;23099;42.636;23.198;2023-06-19T08:58:49;92223.03;;;20.27;67.59
37206;BME280;23099;42.636;23.198;2023-06-19T09:01:17;92221.09;;;20.27;72.29
37206;BME280;23099;42.636;23.198;2023-06-19T09:03:44;92224.63;;;20.24;77.17
37206;BME280;23099;42.636;23.198;2023-06-19T09:06:15;92223.59;;;20.18;80.45
37206;BME280;23099;42.636;23.198;2023-06-19T09:08:42;92226.19;;;20.02;73.38
37206;BME280;23099;42.636;23.198;2023-06-19T09:11:09;92220.47;;;19.96;70.44
37206;BME280;23099;42.636;23.198;2023-06-19T09:13:35;92229.31;;;20.00;76.82
37206;BME280;23099;42.636;23.198;2023-06-19T09:16:04;92222.56;;;20.08;63.13
37206;BME280;23099;42.636;23.198;2023-06-19T09:18:32;92222.13;;;20.13;72.76
37206;BME280;23099;42.636;23.198;2023-06-19T09:21:16;92218.94;;;20.19;59.94
37206;BME280;23099;42.636;23.198;2023-06-19T09:23:43;92213.72;;;20.28;67.31
37206;BME280;23099;42.636;23.198;2023-06-19T09:26:10;92216.28;;;20.35;71.53
37206;BME280;23099;42.636;23.198;2023-06-19T09:28:40;92213.91;;;20.40;64.15
37206;BME280;23099;42.636;23.198;2023-06-19T09:31:07;92219.22;;;20.48;67.35
37206;BME280;23099;42.636;23.198;2023-06-19T09:33:35;92216.00;;;20.53;68.85
37206;BME280;23099;42.636;23.198;2023-06-19T09:36:03;92220.94;;;20.58;66.02
37206;BME280;23099;42.636;23.198;2023-06-19T09:38:32;92216.13;;;20.65;62.19
37206;BME280;23099;42.636;23.198;2023-06-19T09:41:01;92228.81;;;20.72;54.18
37206;BME280;23099;42.636;23.198;2023-06-19T09:43:34;92226.66;;;20.83;58.76
37206;BME280;23099;42.636;23.198;2023-06-19T09:46:03;92225.66;;;20.93;57.90
37206;BME280;23099;42.636;23.198;2023-06-19T09:48:31;92214.59;;;21.04;62.42
37206;BME280;23099;42.636;23.198;2023-06-19T09:51:06;92207.97;;;21.05;62.63
37206;BME280;23099;42.636;23.198;2023-06-19T09:53:35;92217.78;;;21.18;53.97
37206;BME280;23099;42.636;23.198;2023-06-19T09:56:03;92210.69;;;21.25;52.30
37206;BME280;23099;42.636;23.198;2023-06-19T09:58:30;92207.88;;;21.28;53.84
37206;BME280;23099;42.636;23.198;2023-06-19T10:00:58;92214.63;;;21.40;54.04
37206;BME280;23099;42.636;23.198;2023-06-19T10:03:30;92199.16;;;21.53;56.04
37206;BME280;23099;42.636;23.198;2023-06-19T10:05:58;92207.34;;;21.69;57.62
37206;BME280;23099;42.636;23.198;2023-06-19T10:08:27;92194.59;;;21.82;55.39
37206;BME280;23099;42.636;23.198;2023-06-19T10:10:56;92205.34;;;22.06;54.39
37206;BME280;23099;42.636;23.198;2023-06-19T10:13:31;92205.47;;;22.15;59.90
37206;BME280;23099;42.636;23.198;2023-06-19T10:15:58;92199.97;;;22.18;54.14
37206;BME280;23099;42.636;23.198;2023-06-19T10:18:25;92203.09;;;22.17;52.80
37206;BME280;23099;42.636;23.198;2023-06-19T10:20:53;92195.44;;;22.12;57.31
37206;BME280;23099;42.636;23.198;2023-06-19T10:23:21;92206.72;;;22.27;57.59
37206;BME280;23099;42.636;23.198;2023-06-19T10:25:57;92195.25;;;22.35;56.80
37206;BME280;23099;42.636;23.198;2023-06-19T10:28:25;92200.75;;;22.48;58.85
37206;BME280;23099;42.636;23.198;2023-06-19T10:30:52;92196.97;;;22.58;56.60
37206;BME280;23099;42.636;23.198;2023-06-19T10:33:20;92194.38;;;22.67;57.77
37206;BME280;23099;42.636;23.198;2023-06-19T10:35:47;92195.19;;;22.80;52.15
37206;BME280;23099;42.636;23.198;2023-06-19T10:38:14;92192.19;;;22.91;51.95
37206;BME280;23099;42.636;23.198;2023-06-19T10:40:43;92198.06;;;22.89;61.45
37206;BME280;23099;42.636;23.198;2023-06-19T10:43:12;92193.41;;;23.03;51.53
37206;BME280;23099;42.636;23.198;2023-06-19T10:45:39;92193.00;;;23.17;52.98
37206;BME280;23099;42.636;23.198;2023-06-19T10:48:05;92196.16;;;23.28;46.45
37206;BME280;23099;42.636;23.198;2023-06-19T10:50:37;92194.53;;;23.31;49.37
37206;BME280;23099;42.636;23.198;2023-06-19T10:53:08;92194.88;;;23.33;46.67
37206;BME280;23099;42.636;23.198;2023-06-19T10:55:34;92187.78;;;23.22;47.65
37206;BME280;23099;42.636;23.198;2023-06-19T10:58:01;92182.88;;;23.43;50.74
37206;BME280;23099;42.636;23.198;2023-06-19T11:00:31;92182.25;;;23.64;51.39
37206;BME280;23099;42.636;23.198;2023-06-19T11:02:58;92178.03;;;23.97;48.69
37206;BME280;23099;42.636;23.198;2023-06-19T11:05:26;92178.78;;;24.11;44.84
37206;BME280;23099;42.636;23.198;2023-06-19T11:07:54;92181.56;;;24.45;49.08
37206;BME280;23099;42.636;23.198;2023-06-19T11:10:22;92183.34;;;24.61;48.48
37206;BME280;23099;42.636;23.198;2023-06-19T11:12:49;92177.63;;;24.68;44.19
37206;BME280;23099;42.636;23.198;2023-06-19T11:15:16;92182.47;;;24.86;48.47
37206;BME280;23099;42.636;23.198;2023-06-19T11:17:44;92177.09;;;24.82;41.72
37206;BME280;23099;42.636;23.198;2023-06-19T11:20:11;92165.63;;;24.65;45.55
37206;BME280;23099;42.636;23.198;2023-06-19T11:22:39;92162.44;;;24.89;46.96
37206;BME280;23099;42.636;23.198;2023-06-19T11:25:08;92159.13;;;25.16;44.77
37206;BME280;23099;42.636;23.198;2023-06-19T11:27:37;92164.63;;;25.25;45.56
37206;BME280;23099;42.636;23.198;2023-06-19T11:30:06;92170.63;;;25.42;43.81
37206;BME280;23099;42.636;23.198;2023-06-19T11:32:34;92158.47;;;25.43;45.32
37206;BME280;23099;42.636;23.198;2023-06-19T11:35:10;92169.72;;;25.35;48.38
37206;BME280;23099;42.636;23.198;2023-06-19T11:37:39;92155.63;;;25.15;48.97
37206;BME280;23099;42.636;23.198;2023-06-19T11:40:07;92171.63;;;24.82;50.35
37206;BME280;23099;42.636;23.198;2023-06-19T11:42:45;92167.78;;;24.71;49.34
37206;BME280;23099;42.636;23.198;2023-06-19T11:45:12;92163.53;;;24.91;51.10
37206;BME280;23099;42.636;23.198;2023-06-19T11:47:38;92172.41;;;24.83;52.01
37206;BME280;23099;42.636;23.198;2023-06-19T11:50:08;92172.47;;;24.48;49.25
37206;BME280;23099;42.636;23.198;2023-06-19T11:52:34;92158.28;;;24.41;49.22
37206;BME280;23099;42.636;23.198;2023-06-19T11:55:01;92165.28;;;24.42;49.05
37206;BME280;23099;42.636;23.198;2023-06-19T11:57:28;92155.19;;;24.73;48.45
37206;BME280;23099;42.636;23.198;2023-06-19T11:59:55;92157.69;;;24.80;44.90
37206;BME280;23099;42.636;23.198;2023-06-19T12:02:21;92153.53;;;24.97;45.07
37206;BME280;23099;42.636;23.198;2023-06-19T12:04:48;92158.28;;;24.84;42.09
37206;BME280;23099;42.636;23.198;2023-06-19T12:07:16;92151.72;;;24.94;45.78
37206;BME280;23099;42.636;23.198;2023-06-19T12:09:43;92155.50;;;24.97;49.88
37206;BME280;23099;42.636;23.198;2023-06-19T12:12:10;92160.72;;;25.04;47.06
37206;BME280;23099;42.636;23.198;2023-06-19T12:14:36;92163.78;;;25.06;45.08
37206;BME280;23099;42.636;23.198;2023-06-19T12:17:05;92159.00;;;24.97;41.24
37206;BME280;23099;42.636;23.198;2023-06-19T12:19:31;92150.41;;;24.86;44.57
37206;BME280;23099;42.636;23.198;2023-06-19T12:21:58;92153.25;;;24.95;48.28
37206;BME280;23099;42.636;23.198;2023-06-19T12:24:26;92154.75;;;24.96;46.43
37206;BME280;23099;42.636;23.198;2023-06-19T12:26:53;92155.19;;;24.73;47.90
37206;BME280;23099;42.636;23.198;2023-06-19T12:29:19;92156.75;;;24.40;47.52
37206;BME280;23099;42.636;23.198;2023-06-19T12:31:47;92153.25;;;24.05;50.93
37206;BME280;23099;42.636;23.198;2023-06-19T12:34:13;92150.25;;;23.77;49.36
37206;BME280;23099;42.636;23.198;2023-06-19T12:36:40;92147.09;;;23.79;47.39
37206;BME280;23099;42.636;23.198;2023-06-19T12:39:07;92152.59;;;24.01;50.96
37206;BME280;23099;42.636;23.198;2023-06-19T12:41:42;92139.47;;;24.08;56.92
37206;BME280;23099;42.636;23.198;2023-06-19T12:44:09;92148.94;;;24.16;49.53
37206;BME280;23099;42.636;23.198;2023-06-19T12:46:36;92149.06;;;24.13;48.22